createdAt,value
2018-03-24T00:01:33.973Z,45.00
2018-03-24T00:04:03.792Z,41.85
2018-03-24T00:06:33.699Z,42.42
2018-03-24T00:09:03.279Z,42.30
2018-03-24T00:11:33.227Z,43.05
2018-03-24T00:14:02.918Z,45.10
2018-03-24T00:16:33.214Z,47.60
2018-03-24T00:19:03.059Z,40.03
2018-03-24T00:21:32.965Z,43.97
2018-03-24T00:24:02.785Z,44.15
2018-03-24T00:26:32.671Z,48.05
2018-03-24T00:29:02.561Z,42.47
2018-03-24T00:31:32.433Z,38.92
2018-03-24T00:34:02.503Z,45.28
2018-03-24T00:36:32.372Z,39.10
2018-03-24T00:39:02.247Z,42.72
2018-03-24T00:41:43.290Z,45.90
2018-03-24T00:44:15.550Z,44.83
2018-03-24T00:46:45.440Z,41.70
2018-03-24T00:49:15.374Z,45.35
2018-03-24T00:51:45.950Z,43.63
2018-03-24T00:54:15.828Z,42.50
2018-03-24T00:56:53.937Z,42.70
2018-03-24T00:59:36.485Z,41.53
2018-03-24T01:02:23.755Z,39.22
2018-03-24T01:04:58.688Z,46.00
2018-03-24T01:07:28.449Z,42.78
2018-03-24T01:09:58.402Z,42.83
2018-03-24T01:12:28.381Z,44.72
2018-03-24T01:14:58.427Z,43.22
2018-03-24T01:17:29.301Z,47.70
2018-03-24T01:20:05.867Z,45.10
2018-03-24T01:22:39.389Z,45.65
2018-03-24T01:25:09.214Z,41.58
2018-03-24T01:27:39.133Z,45.10
2018-03-24T01:30:09.063Z,44.55
2018-03-24T01:32:38.899Z,44.90
2018-03-24T01:35:09.430Z,37.00
2018-03-24T01:37:39.303Z,45.97
2018-03-24T01:40:09.169Z,44.00
2018-03-24T01:42:39.035Z,35.65
2018-03-24T01:45:08.751Z,46.13
2018-03-24T01:47:38.781Z,41.60
2018-03-24T01:50:08.610Z,37.45
2018-03-24T01:52:38.473Z,36.75
2018-03-24T01:55:08.025Z,38.83
2018-03-24T01:57:38.232Z,43.10
2018-03-24T02:00:11.920Z,40.22
2018-03-24T02:02:43.730Z,48.53
2018-03-24T02:05:14.235Z,41.65
2018-03-24T02:07:43.856Z,34.20
2018-03-24T02:10:13.746Z,40.67
2018-03-24T02:12:43.708Z,39.75
2018-03-24T02:15:13.394Z,37.58
2018-03-24T02:17:43.012Z,36.78
2018-03-24T02:20:15.534Z,40.03
2018-03-24T02:22:45.710Z,35.00
2018-03-24T02:25:16.300Z,33.38
2018-03-24T02:27:46.112Z,39.95
2018-03-24T02:30:16.024Z,43.30
2018-03-24T02:32:47.593Z,40.70
2018-03-24T02:35:17.501Z,34.85
2018-03-24T02:37:47.405Z,39.38
2018-03-24T02:40:17.219Z,35.53
2018-03-24T02:42:47.393Z,33.75
2018-03-24T02:45:17.248Z,30.83
2018-03-24T02:47:47.101Z,32.95
2018-03-24T02:50:16.948Z,32.38
2018-03-24T02:52:47.099Z,34.70
2018-03-24T02:55:17.023Z,28.50
2018-03-24T02:57:46.910Z,26.80
2018-03-24T03:00:16.778Z,27.27
2018-03-24T03:02:46.641Z,30.98
2018-03-24T03:05:16.244Z,30.05
2018-03-24T03:07:45.844Z,31.17
2018-03-24T03:10:15.674Z,28.75
2018-03-24T03:12:45.497Z,27.37
2018-03-24T03:15:15.449Z,28.10
2018-03-24T03:17:45.270Z,33.17
2018-03-24T03:20:24.115Z,28.80
2018-03-24T03:22:56.385Z,29.58
2018-03-24T03:25:26.253Z,31.02
2018-03-24T03:27:55.924Z,27.45
2018-03-24T03:33:38.882Z,30.67
2018-03-24T03:36:17.344Z,29.63
2018-03-24T03:38:48.401Z,32.00
2018-03-24T03:41:18.340Z,30.88
2018-03-24T03:43:48.394Z,26.27
2018-03-24T03:46:18.308Z,26.55
2018-03-24T03:48:48.458Z,32.17
2018-03-24T03:51:18.275Z,30.27
2018-03-24T03:53:48.212Z,31.58
2018-03-24T03:56:18.833Z,28.02
2018-03-24T03:58:48.696Z,30.90
2018-03-24T04:01:18.573Z,25.35
2018-03-24T04:03:48.476Z,33.88
2018-03-24T04:06:18.442Z,31.77
2018-03-24T04:08:48.428Z,28.83
2018-03-24T04:11:18.347Z,24.23
2018-03-24T04:13:48.248Z,29.08
2018-03-24T04:16:18.173Z,35.80
2018-03-24T04:18:48.088Z,29.42
2018-03-24T04:21:18.513Z,23.40
2018-03-24T04:23:48.407Z,23.98
2018-03-24T04:26:18.278Z,27.10
2018-03-24T04:28:52.134Z,31.65
2018-03-24T04:31:21.978Z,31.70
2018-03-24T04:33:52.472Z,29.60
2018-03-24T04:36:22.523Z,28.40
2018-03-24T04:38:52.439Z,26.12
2018-03-24T04:41:23.146Z,27.15
2018-03-24T04:43:53.027Z,27.33
2018-03-24T04:46:29.761Z,26.70
2018-03-24T04:49:15.968Z,27.30
2018-03-24T04:51:48.035Z,30.23
2018-03-24T04:54:18.153Z,29.73
2018-03-24T04:56:48.106Z,25.37
2018-03-24T04:59:17.970Z,28.85
2018-03-24T05:01:48.194Z,32.17
2018-03-24T05:04:29.081Z,31.17
2018-03-24T05:07:00.814Z,25.23
2018-03-24T05:09:41.194Z,23.75
2018-03-24T05:12:11.707Z,27.27
2018-03-24T05:14:41.509Z,28.42
2018-03-24T05:17:18.437Z,26.58
2018-03-24T05:19:50.213Z,31.17
2018-03-24T05:22:20.142Z,27.48
2018-03-24T05:24:50.101Z,28.77
2018-03-24T05:27:19.935Z,27.10
2018-03-24T05:29:50.113Z,30.40
2018-03-24T05:32:19.909Z,31.33
2018-03-24T05:34:49.729Z,31.30
2018-03-24T05:37:19.633Z,29.48
2018-03-24T05:39:49.532Z,27.83
2018-03-24T05:42:19.647Z,27.37
2018-03-24T05:44:49.519Z,27.80
2018-03-24T05:47:19.363Z,27.95
2018-03-24T05:49:49.212Z,26.73
2018-03-24T05:52:19.040Z,27.33
2018-03-24T05:54:48.922Z,29.75
2018-03-24T05:57:18.783Z,24.15
2018-03-24T05:59:48.684Z,25.65
2018-03-24T06:02:18.630Z,24.48
2018-03-24T06:04:48.482Z,25.73
2018-03-24T06:07:18.350Z,33.58
2018-03-24T06:09:48.206Z,20.88
2018-03-24T06:12:18.098Z,30.90
2018-03-24T06:14:48.276Z,27.20
2018-03-24T06:17:18.149Z,27.65
2018-03-24T06:19:48.701Z,29.37
2018-03-24T06:22:18.602Z,35.97
2018-03-24T06:24:48.458Z,29.10
2018-03-24T06:27:18.358Z,33.53
2018-03-24T06:29:48.102Z,30.90
2018-03-24T06:32:18.365Z,25.62
2018-03-24T06:34:48.012Z,31.27
2018-03-24T06:37:18.204Z,25.77
2018-03-24T06:39:48.318Z,28.38
2018-03-24T06:42:18.339Z,31.77
2018-03-24T06:44:48.285Z,30.52
2018-03-24T06:47:18.255Z,32.75
2018-03-24T06:49:48.460Z,35.33
2018-03-24T06:52:18.452Z,32.97
2018-03-24T06:54:48.386Z,37.20
2018-03-24T06:57:18.307Z,35.33
2018-03-24T06:59:48.183Z,39.05
2018-03-24T07:02:19.594Z,30.27
2018-03-24T07:04:50.909Z,38.13
2018-03-24T07:07:21.762Z,36.20
2018-03-24T07:09:52.324Z,33.35
2018-03-24T07:12:22.241Z,37.33
2018-03-24T07:14:52.107Z,40.10
2018-03-24T07:17:21.956Z,33.50
2018-03-24T07:19:51.889Z,35.30
2018-03-24T07:22:21.773Z,36.88
2018-03-24T07:24:51.731Z,34.10
2018-03-24T07:27:21.995Z,36.50
2018-03-24T07:29:51.872Z,37.60
2018-03-24T07:32:21.743Z,32.70
2018-03-24T07:34:51.579Z,41.25
2018-03-24T07:37:21.468Z,32.42
2018-03-24T07:39:51.322Z,36.75
2018-03-24T07:42:21.161Z,31.80
2018-03-24T07:44:51.023Z,34.63
2018-03-24T07:47:20.899Z,32.80
2018-03-24T07:49:50.702Z,31.77
2018-03-24T07:52:20.499Z,32.55
2018-03-24T07:54:50.301Z,31.98
2018-03-24T07:57:20.139Z,28.50
2018-03-24T07:59:50.036Z,29.35
2018-03-24T08:02:20.175Z,31.05
2018-03-24T08:04:50.056Z,34.05
2018-03-24T08:07:19.866Z,27.67
2018-03-24T08:09:49.726Z,28.45
2018-03-24T08:12:19.555Z,28.58
2018-03-24T08:14:49.434Z,30.00
2018-03-24T08:17:19.249Z,27.25
2018-03-24T08:19:49.093Z,33.88
2018-03-24T08:22:19.107Z,30.12
2018-03-24T08:24:49.051Z,26.95
2018-03-24T08:27:19.141Z,24.77
2018-03-24T08:29:49.020Z,25.48
2018-03-24T08:32:28.115Z,32.80
2018-03-24T08:34:58.869Z,25.23
2018-03-24T08:37:30.010Z,26.65
2018-03-24T08:40:00.617Z,26.98
2018-03-24T08:42:31.595Z,28.95
2018-03-24T08:45:02.183Z,27.65
2018-03-24T08:47:32.692Z,25.88
2018-03-24T08:50:03.345Z,28.85
2018-03-24T08:52:33.938Z,31.73
2018-03-24T08:55:04.454Z,25.30
2018-03-24T08:57:35.135Z,25.62
2018-03-24T09:00:05.383Z,28.10
2018-03-24T09:02:35.585Z,26.65
2018-03-24T09:05:05.592Z,26.02
2018-03-24T09:07:36.179Z,31.95
2018-03-24T09:10:06.590Z,26.95
2018-03-24T09:12:37.161Z,26.52
2018-03-24T09:15:07.853Z,30.60
2018-03-24T09:17:38.536Z,25.73
2018-03-24T09:20:08.995Z,23.70
2018-03-24T09:22:38.977Z,26.20
2018-03-24T09:25:08.954Z,24.20
2018-03-24T09:27:38.542Z,24.67
2018-03-24T09:30:08.113Z,23.50
2018-03-24T09:32:37.719Z,21.83
2018-03-24T09:35:07.217Z,23.83
2018-03-24T09:37:36.763Z,23.40
2018-03-24T09:40:06.396Z,26.03
2018-03-24T09:42:35.905Z,21.17
2018-03-24T09:45:05.254Z,24.50
2018-03-24T09:47:34.797Z,23.67
2018-03-24T09:50:04.322Z,24.37
2018-03-24T09:52:34.069Z,21.73
2018-03-24T09:55:03.618Z,17.20
2018-03-24T09:57:33.128Z,14.60
2018-03-24T10:00:02.812Z,18.70
2018-03-24T10:02:32.794Z,16.60
2018-03-24T10:05:02.123Z,12.83
2018-03-24T10:07:31.684Z,9.70
2018-03-24T10:10:01.460Z,9.30
2018-03-24T10:12:31.072Z,11.80
2018-03-24T10:15:00.845Z,7.25
2018-03-24T10:17:30.626Z,5.85
2018-03-24T10:20:00.349Z,10.50
2018-03-24T10:25:35.157Z,9.95
2018-03-24T10:28:05.703Z,6.15
2018-03-24T10:30:35.552Z,8.68
2018-03-24T10:33:05.408Z,9.70
2018-03-24T10:35:35.338Z,10.30
2018-03-24T10:38:04.850Z,12.57
2018-03-24T10:40:38.516Z,15.13
2018-03-24T10:43:13.706Z,12.73
2018-03-24T10:45:43.329Z,12.53
2018-03-24T10:48:13.203Z,11.95
2018-03-24T10:50:43.286Z,15.38
2018-03-24T10:53:13.072Z,14.05
2018-03-24T10:55:46.768Z,8.50
2018-03-24T10:58:17.018Z,11.05
2018-03-24T11:00:52.381Z,15.70
2018-03-24T11:03:21.932Z,12.20
2018-03-24T11:05:51.496Z,13.80
2018-03-24T11:08:21.045Z,14.10
2018-03-24T11:10:50.654Z,16.33
2018-03-24T11:13:20.168Z,15.53
2018-03-24T11:15:49.696Z,15.30
2018-03-24T11:18:19.257Z,15.93
2018-03-24T11:20:49.102Z,12.70
2018-03-24T11:23:18.427Z,15.60
2018-03-24T11:25:48.016Z,14.00
2018-03-24T11:28:17.508Z,12.97
2018-03-24T11:30:47.052Z,13.73
2018-03-24T11:33:16.362Z,13.40
2018-03-24T11:35:46.790Z,12.53
2018-03-24T11:38:16.555Z,12.70
2018-03-24T11:40:46.088Z,11.83
2018-03-24T11:43:15.714Z,13.27
2018-03-24T11:45:45.857Z,11.97
2018-03-24T11:48:15.397Z,13.80
2018-03-24T11:50:44.930Z,13.03
2018-03-24T11:53:14.583Z,13.40
2018-03-24T11:55:44.995Z,12.70
2018-03-24T11:58:15.475Z,14.40
2018-03-24T12:00:45.051Z,15.27
2018-03-24T12:03:14.560Z,13.30
2018-03-24T12:05:44.097Z,17.33
2018-03-24T12:08:13.605Z,12.60
2018-03-24T12:10:43.105Z,14.60
2018-03-24T12:13:12.680Z,13.73
2018-03-24T12:15:42.191Z,14.90
2018-03-24T12:18:11.694Z,13.30
2018-03-24T12:20:41.245Z,12.60
2018-03-24T12:23:10.766Z,14.37
2018-03-24T12:25:40.297Z,15.97
2018-03-24T12:28:10.099Z,15.77
2018-03-24T12:30:39.668Z,14.47
2018-03-24T12:33:09.283Z,16.47
2018-03-24T12:35:38.804Z,12.50
2018-03-24T12:38:08.389Z,12.30
2018-03-24T12:40:37.972Z,13.40
2018-03-24T12:43:07.521Z,11.30
2018-03-24T12:45:37.213Z,14.10
2018-03-24T12:48:06.731Z,14.87
2018-03-24T12:50:36.268Z,14.10
2018-03-24T12:53:05.814Z,13.30
2018-03-24T12:55:35.318Z,12.73
2018-03-24T12:58:05.429Z,12.87
2018-03-24T13:00:34.945Z,16.47
2018-03-24T13:03:04.865Z,14.33
2018-03-24T13:05:34.499Z,16.53
2018-03-24T13:08:04.024Z,12.40
2018-03-24T13:10:34.064Z,12.80
2018-03-24T13:13:03.592Z,14.10
2018-03-24T13:15:33.146Z,14.00
2018-03-24T13:18:02.659Z,12.83
2018-03-24T13:20:31.897Z,14.87
2018-03-24T13:23:01.433Z,15.27
2018-03-24T13:25:30.943Z,15.10
2018-03-24T13:28:00.472Z,16.70
2018-03-24T13:30:30.021Z,14.20
2018-03-24T13:32:59.550Z,13.90
2018-03-24T13:35:29.052Z,13.00
2018-03-24T13:37:58.661Z,13.00
2018-03-24T13:40:28.163Z,13.27
2018-03-24T13:42:57.745Z,12.63
2018-03-24T13:45:27.248Z,13.60
2018-03-24T13:47:56.816Z,16.77
2018-03-24T13:50:26.400Z,16.73
2018-03-24T13:52:55.945Z,15.60
2018-03-24T13:55:25.484Z,18.40
2018-03-24T13:57:55.089Z,13.73
2018-03-24T14:00:24.611Z,12.30
2018-03-24T14:02:54.149Z,14.93
2018-03-24T14:05:23.673Z,17.83
2018-03-24T14:07:53.199Z,14.67
2018-03-24T14:10:22.702Z,13.63
2018-03-24T14:12:52.271Z,13.70
2018-03-24T14:15:21.597Z,12.80
2018-03-24T14:17:51.117Z,16.57
2018-03-24T14:20:20.635Z,15.30
2018-03-24T14:22:49.977Z,17.03
2018-03-24T14:25:19.484Z,12.03
2018-03-24T14:27:49.025Z,13.97
2018-03-24T14:30:18.559Z,15.87
2018-03-24T14:32:52.120Z,15.00
2018-03-24T14:35:21.642Z,17.60
2018-03-24T14:37:51.152Z,19.20
2018-03-24T14:40:20.679Z,19.23
2018-03-24T14:42:50.526Z,14.80
2018-03-24T14:45:20.364Z,12.18
2018-03-24T14:47:50.180Z,15.05
2018-03-24T14:50:20.027Z,15.00
2018-03-24T14:52:49.844Z,15.57
2018-03-24T14:55:19.637Z,17.10
2018-03-24T14:57:49.644Z,12.45
2018-03-24T15:00:19.739Z,15.57
2018-03-24T15:02:49.603Z,15.80
2018-03-24T15:05:19.458Z,16.60
2018-03-24T15:07:49.291Z,13.48
2018-03-24T15:10:19.295Z,14.60
2018-03-24T15:12:49.182Z,15.20
2018-03-24T15:15:19.041Z,18.05
2018-03-24T15:17:48.844Z,13.32
2018-03-24T15:20:18.636Z,17.70
2018-03-24T15:22:48.449Z,14.30
2018-03-24T15:25:18.016Z,14.38
2018-03-24T15:27:47.881Z,11.77
2018-03-24T15:30:28.762Z,13.90
2018-03-24T15:33:09.486Z,15.07
2018-03-24T15:35:38.720Z,19.62
2018-03-24T15:38:08.270Z,14.65
2018-03-24T15:40:38.061Z,14.63
2018-03-24T15:43:07.980Z,17.52
2018-03-24T15:45:41.804Z,16.02
2018-03-24T15:48:11.798Z,21.50
2018-03-24T15:50:41.650Z,14.75
2018-03-24T15:53:11.504Z,17.60
2018-03-24T15:55:41.150Z,15.52
2018-03-24T15:58:10.849Z,17.00
2018-03-24T16:00:41.505Z,18.87
2018-03-24T16:03:11.353Z,23.90
2018-03-24T16:05:41.168Z,25.25
2018-03-24T16:08:14.791Z,18.37
2018-03-24T16:10:44.596Z,18.87
2018-03-24T16:13:14.397Z,19.08
2018-03-24T16:15:44.287Z,18.70
2018-03-24T16:18:14.212Z,17.10
2018-03-24T16:20:43.815Z,19.83
2018-03-24T16:23:13.603Z,19.37
2018-03-24T16:25:43.412Z,17.10
2018-03-24T16:28:13.242Z,21.87
2018-03-24T16:30:43.037Z,23.05
2018-03-24T16:33:12.864Z,20.85
2018-03-24T16:35:42.758Z,20.60
2018-03-24T16:38:12.562Z,22.45
2018-03-24T16:40:42.934Z,17.27
2018-03-24T16:43:12.840Z,24.63
2018-03-24T16:45:42.658Z,24.37
2018-03-24T16:48:17.390Z,24.00
2018-03-24T16:50:55.464Z,24.35
2018-03-24T16:53:27.298Z,21.85
2018-03-24T16:55:58.580Z,18.83
2018-03-24T16:58:28.585Z,24.98
2018-03-24T17:00:58.695Z,20.98
2018-03-24T17:03:28.610Z,21.67
2018-03-24T17:05:58.466Z,19.37
2018-03-24T17:08:28.388Z,20.67
2018-03-24T17:10:58.587Z,21.62
2018-03-24T17:13:28.553Z,20.85
2018-03-24T17:15:58.432Z,19.02
2018-03-24T17:18:28.280Z,20.88
2018-03-24T17:20:58.069Z,18.62
2018-03-24T17:23:27.884Z,20.25
2018-03-24T17:25:57.753Z,18.62
2018-03-24T17:28:27.630Z,19.92
2018-03-24T17:30:58.229Z,26.08
2018-03-24T17:33:28.018Z,21.55
2018-03-24T17:35:57.836Z,22.00
2018-03-24T17:38:27.682Z,23.85
2018-03-24T17:40:57.260Z,21.75
2018-03-24T17:43:27.066Z,29.33
2018-03-24T17:45:56.876Z,22.75
2018-03-24T17:48:26.692Z,23.58
2018-03-24T17:50:56.328Z,23.42
2018-03-24T17:53:26.129Z,27.80
2018-03-24T17:55:55.957Z,25.02
2018-03-24T17:58:26.229Z,29.87
2018-03-24T18:00:56.122Z,28.60
2018-03-24T18:03:25.930Z,23.85
2018-03-24T18:05:55.735Z,29.08
2018-03-24T18:08:26.340Z,28.55
2018-03-24T18:10:56.176Z,25.70
2018-03-24T18:13:26.229Z,28.77
2018-03-24T18:15:56.033Z,23.35
2018-03-24T18:18:25.833Z,26.50
2018-03-24T18:20:55.673Z,24.60
2018-03-24T18:23:26.199Z,30.12
2018-03-24T18:25:56.520Z,24.10
2018-03-24T18:28:26.406Z,33.38
2018-03-24T18:30:56.897Z,27.17
2018-03-24T18:33:27.118Z,25.30
2018-03-24T18:35:58.146Z,28.67
2018-03-24T18:38:28.173Z,25.35
2018-03-24T18:40:57.995Z,25.73
2018-03-24T18:43:32.540Z,24.95
2018-03-24T18:46:02.701Z,30.17
2018-03-24T18:48:32.488Z,25.10
2018-03-24T18:51:02.296Z,21.90
2018-03-24T18:53:32.122Z,22.40
2018-03-24T18:56:02.182Z,24.27
2018-03-24T18:58:31.993Z,28.42
2018-03-24T19:01:01.798Z,24.87
2018-03-24T19:03:31.648Z,25.98
2018-03-24T19:06:01.620Z,25.60
2018-03-24T19:08:31.160Z,26.73
2018-03-24T19:11:00.971Z,25.37
2018-03-24T19:13:30.817Z,25.15
2018-03-24T19:16:00.904Z,23.52
2018-03-24T19:18:30.701Z,21.90
2018-03-24T19:21:00.516Z,24.23
2018-03-24T19:23:30.344Z,20.00
2018-03-24T19:26:00.613Z,23.52
2018-03-24T19:28:30.422Z,23.25
2018-03-24T19:31:00.357Z,23.92
2018-03-24T19:33:30.191Z,18.10
2018-03-24T19:35:59.996Z,26.27
2018-03-24T19:38:29.819Z,22.87
2018-03-24T19:41:00.428Z,23.02
2018-03-24T19:43:30.232Z,17.20
2018-03-24T19:46:00.750Z,21.20
2018-03-24T19:48:30.638Z,20.35
2018-03-24T19:51:00.475Z,20.73
2018-03-24T19:53:30.479Z,21.42
2018-03-24T19:56:00.275Z,17.12
2018-03-24T19:58:30.091Z,19.92
2018-03-24T20:00:59.984Z,18.27
2018-03-24T20:03:30.493Z,17.10
2018-03-24T20:06:00.325Z,24.77
2018-03-24T20:08:30.774Z,15.95
2018-03-24T20:11:00.573Z,22.10
2018-03-24T20:13:30.401Z,17.02
2018-03-24T20:16:00.733Z,18.33
2018-03-24T20:18:35.879Z,18.85
2018-03-24T20:21:06.104Z,15.40
2018-03-24T20:23:36.652Z,17.02
2018-03-24T20:26:07.188Z,18.08
2018-03-24T20:28:37.006Z,17.70
2018-03-24T20:31:06.796Z,17.40
2018-03-24T20:33:36.593Z,16.95
2018-03-24T20:36:06.623Z,17.50
2018-03-24T20:38:36.427Z,17.27
2018-03-24T20:41:06.289Z,16.95
2018-03-24T20:43:36.104Z,20.37
2018-03-24T20:46:05.943Z,15.48
2018-03-24T20:48:35.732Z,14.87
2018-03-24T20:51:05.612Z,18.55
2018-03-24T20:53:35.311Z,14.07
2018-03-24T20:56:05.102Z,13.85
2018-03-24T20:58:34.934Z,16.92
2018-03-24T21:01:04.732Z,21.37
2018-03-24T21:03:34.652Z,15.80
2018-03-24T21:06:04.607Z,16.02
2018-03-24T21:08:35.150Z,14.45
2018-03-24T21:11:05.653Z,16.60
2018-03-24T21:13:36.160Z,20.77
2018-03-24T21:16:06.382Z,21.87
2018-03-24T21:18:42.122Z,13.77
2018-03-24T21:21:12.183Z,15.57
2018-03-24T21:23:42.018Z,25.58
2018-03-24T21:26:11.950Z,18.65
2018-03-24T21:28:41.855Z,15.35
2018-03-24T21:31:11.765Z,18.25
2018-03-24T21:33:42.191Z,15.35
2018-03-24T21:36:12.140Z,16.58
2018-03-24T21:38:42.108Z,17.35
2018-03-24T21:41:11.987Z,17.83
2018-03-24T21:43:42.433Z,19.67
2018-03-24T21:46:12.647Z,14.02
2018-03-24T21:48:42.498Z,18.25
2018-03-24T21:51:12.405Z,17.75
2018-03-24T21:53:42.226Z,16.45
2018-03-24T21:56:12.233Z,27.20
2018-03-24T21:58:42.182Z,14.13
2018-03-24T22:01:12.581Z,22.05
2018-03-24T22:03:42.536Z,16.48
2018-03-24T22:06:12.362Z,15.82
2018-03-24T22:08:42.236Z,17.67
2018-03-24T22:11:12.067Z,14.00
2018-03-24T22:13:42.036Z,15.38
2018-03-24T22:16:11.957Z,17.08
2018-03-24T22:18:41.612Z,21.17
2018-03-24T22:21:11.421Z,22.17
2018-03-24T22:23:42.349Z,18.60
2018-03-24T22:26:12.786Z,13.62
2018-03-24T22:28:42.860Z,22.95
2018-03-24T22:31:12.802Z,16.65
2018-03-24T22:33:43.195Z,16.02
2018-03-24T22:36:13.150Z,14.90
2018-03-24T22:38:42.984Z,16.52
2018-03-24T22:41:12.911Z,15.82
2018-03-24T22:43:42.802Z,18.37
2018-03-24T22:46:12.695Z,14.70
2018-03-24T22:48:42.578Z,18.83
2018-03-24T22:51:12.590Z,15.50
2018-03-24T22:53:42.609Z,16.35
2018-03-24T22:56:12.515Z,17.70
2018-03-24T22:58:42.357Z,13.45
2018-03-24T23:01:12.315Z,16.25
2018-03-24T23:03:42.328Z,14.15
2018-03-24T23:06:12.890Z,16.67
2018-03-24T23:08:42.874Z,18.12
2018-03-24T23:11:13.324Z,15.80
2018-03-24T23:13:43.150Z,20.12
2018-03-24T23:16:12.729Z,16.20
2018-03-24T23:18:42.669Z,14.55
2018-03-24T23:21:12.578Z,21.15
2018-03-24T23:23:42.493Z,22.48
2018-03-24T23:26:12.418Z,22.37
2018-03-24T23:28:42.270Z,19.02
2018-03-24T23:31:12.134Z,14.43
2018-03-24T23:33:42.003Z,17.27
2018-03-24T23:36:11.881Z,15.50
2018-03-24T23:38:41.696Z,15.88
2018-03-24T23:41:11.833Z,19.87
2018-03-24T23:43:41.681Z,22.15
2018-03-24T23:46:11.373Z,16.85
2018-03-24T23:48:41.257Z,19.48
2018-03-24T23:51:11.968Z,15.38
2018-03-24T23:53:41.781Z,14.23
2018-03-24T23:56:11.676Z,18.52
2018-03-24T23:58:41.649Z,18.10
